createdAt,value
2019-03-04T00:01:04.993Z,56.70
2019-03-04T00:03:34.869Z,56.72
2019-03-04T00:06:04.736Z,57.04
2019-03-04T00:08:35.108Z,56.63
2019-03-04T00:11:05.428Z,57.27
2019-03-04T00:13:35.618Z,57.10
2019-03-04T00:16:05.992Z,57.60
2019-03-04T00:18:36.504Z,57.74
2019-03-04T00:21:07.083Z,58.84
2019-03-04T00:23:36.888Z,58.86
2019-03-04T00:26:07.066Z,59.24
2019-03-04T00:28:37.271Z,60.39
2019-03-04T00:31:07.585Z,60.18
2019-03-04T00:33:37.562Z,60.02
2019-03-04T00:36:07.673Z,61.26
2019-03-04T00:38:38.029Z,62.47
2019-03-04T00:41:08.318Z,63.49
2019-03-04T00:43:38.524Z,63.67
2019-03-04T00:46:08.866Z,63.60
2019-03-04T00:48:38.882Z,63.56
2019-03-04T00:51:09.253Z,63.59
2019-03-04T00:53:39.635Z,63.67
2019-03-04T00:56:09.780Z,63.92
2019-03-04T00:58:40.004Z,63.81
2019-03-04T01:01:10.078Z,63.92
2019-03-04T01:03:40.271Z,64.24
2019-03-04T01:06:10.814Z,63.97
2019-03-04T01:08:40.637Z,63.50
2019-03-04T01:11:11.162Z,63.15
2019-03-04T01:13:41.523Z,62.72
2019-03-04T01:16:12.037Z,61.95
2019-03-04T01:18:42.114Z,61.21
2019-03-04T01:21:12.329Z,61.57
2019-03-04T01:23:42.944Z,62.08
2019-03-04T01:26:13.436Z,62.15
2019-03-04T01:28:43.641Z,62.08
2019-03-04T01:31:14.013Z,61.61
2019-03-04T01:33:44.504Z,62.17
2019-03-04T01:36:14.948Z,62.48
2019-03-04T01:38:44.825Z,62.53
2019-03-04T01:41:15.222Z,63.13
2019-03-04T01:43:45.522Z,62.89
2019-03-04T01:46:16.931Z,63.31
2019-03-04T01:48:47.238Z,63.84
2019-03-04T01:51:17.342Z,64.25
2019-03-04T01:53:47.569Z,64.73
2019-03-04T01:56:17.559Z,65.11
2019-03-04T01:58:47.881Z,65.61
2019-03-04T02:01:18.053Z,65.43
2019-03-04T02:03:48.254Z,65.38
2019-03-04T02:06:18.835Z,65.55
2019-03-04T02:08:49.183Z,65.66
2019-03-04T02:11:19.825Z,65.73
2019-03-04T02:13:51.401Z,65.75
2019-03-04T02:16:21.694Z,65.76
2019-03-04T02:18:52.016Z,65.36
2019-03-04T02:21:21.869Z,65.48
2019-03-04T02:23:52.224Z,65.40
2019-03-04T02:26:32.232Z,65.87
2019-03-04T02:29:02.800Z,66.34
2019-03-04T02:31:33.098Z,66.15
2019-03-04T02:34:03.630Z,66.43
2019-03-04T02:36:33.985Z,66.27
2019-03-04T02:39:05.655Z,66.58
2019-03-04T02:41:36.002Z,66.57
2019-03-04T02:44:06.604Z,66.95
2019-03-04T02:46:36.795Z,66.70
2019-03-04T02:49:07.112Z,66.81
2019-03-04T02:51:37.503Z,66.93
2019-03-04T02:54:07.612Z,66.89
2019-03-04T02:56:38.238Z,67.22
2019-03-04T02:59:08.517Z,67.53
2019-03-04T03:01:38.590Z,67.62
2019-03-04T03:04:08.607Z,67.82
2019-03-04T03:06:39.105Z,68.44
2019-03-04T03:09:11.016Z,69.20
2019-03-04T03:11:41.286Z,69.54
2019-03-04T03:14:11.535Z,69.87
2019-03-04T03:16:41.787Z,69.73
2019-03-04T03:19:12.240Z,69.75
2019-03-04T03:21:42.574Z,69.62
2019-03-04T03:24:13.138Z,69.58
2019-03-04T03:26:43.269Z,69.76
2019-03-04T03:29:13.894Z,70.26
2019-03-04T03:31:43.609Z,70.62
2019-03-04T03:34:13.963Z,69.41
2019-03-04T03:36:44.226Z,69.23
2019-03-04T03:39:14.678Z,69.56
2019-03-04T03:41:44.946Z,70.20
2019-03-04T03:44:14.992Z,69.80
2019-03-04T03:46:45.480Z,69.84
2019-03-04T03:49:15.596Z,70.03
2019-03-04T03:51:45.851Z,70.55
2019-03-04T03:54:16.617Z,70.39
2019-03-04T03:56:47.057Z,70.49
2019-03-04T03:59:17.156Z,70.44
2019-03-04T04:01:47.301Z,70.79
2019-03-04T04:04:17.972Z,70.97
2019-03-04T04:06:48.349Z,71.16
2019-03-04T04:09:18.621Z,71.50
2019-03-04T04:11:48.899Z,71.97
2019-03-04T04:14:19.263Z,72.00
2019-03-04T04:16:49.414Z,71.34
2019-03-04T04:19:19.727Z,71.56
2019-03-04T04:21:50.183Z,71.29
2019-03-04T04:24:20.707Z,71.23
2019-03-04T04:26:51.094Z,71.42
2019-03-04T04:29:21.468Z,72.10
2019-03-04T04:31:52.348Z,72.50
2019-03-04T04:34:22.803Z,72.45
2019-03-04T04:36:53.103Z,72.84
2019-03-04T04:39:23.404Z,72.82
2019-03-04T04:41:53.784Z,72.43
2019-03-04T04:44:24.376Z,72.38
2019-03-04T04:46:55.989Z,72.25
2019-03-04T04:49:31.111Z,72.03
2019-03-04T04:52:01.613Z,72.56
2019-03-04T04:54:31.949Z,73.23
2019-03-04T04:57:02.257Z,73.45
2019-03-04T04:59:32.191Z,73.75
2019-03-04T05:02:02.878Z,73.78
2019-03-04T05:04:33.247Z,72.86
2019-03-04T05:07:03.641Z,73.06
2019-03-04T05:09:34.123Z,73.34
2019-03-04T05:12:04.245Z,73.17
2019-03-04T05:14:34.707Z,73.46
2019-03-04T05:17:05.239Z,73.13
2019-03-04T05:19:35.814Z,73.75
2019-03-04T05:22:06.380Z,74.20
2019-03-04T05:24:36.698Z,74.20
2019-03-04T05:27:07.077Z,73.71
2019-03-04T05:29:37.474Z,73.63
2019-03-04T05:32:07.695Z,74.09
2019-03-04T05:34:37.866Z,74.85
2019-03-04T05:37:08.065Z,74.02
2019-03-04T05:39:37.845Z,73.76
2019-03-04T05:42:08.141Z,73.84
2019-03-04T05:44:38.239Z,73.75
2019-03-04T05:47:08.744Z,73.79
2019-03-04T05:49:39.219Z,74.13
2019-03-04T05:52:09.652Z,74.02
2019-03-04T05:54:40.147Z,73.36
2019-03-04T05:57:10.507Z,73.46
2019-03-04T05:59:43.395Z,72.83
2019-03-04T06:02:14.103Z,71.72
2019-03-04T06:04:46.239Z,71.13
2019-03-04T06:07:40.942Z,70.14
2019-03-04T06:10:13.316Z,69.99
2019-03-04T06:12:43.576Z,70.14
2019-03-04T06:15:16.153Z,69.88
2019-03-04T06:17:46.609Z,69.80
2019-03-04T06:20:17.573Z,69.91
2019-03-04T06:22:47.624Z,69.24
2019-03-04T06:25:22.803Z,68.90
2019-03-04T06:27:53.152Z,68.32
2019-03-04T06:30:24.603Z,67.80
2019-03-04T06:32:54.976Z,67.45
2019-03-04T06:35:24.996Z,66.96
2019-03-04T06:37:54.850Z,66.45
2019-03-04T06:40:25.107Z,66.38
2019-03-04T06:42:55.433Z,66.09
2019-03-04T06:45:25.673Z,65.99
2019-03-04T06:47:55.590Z,65.95
2019-03-04T06:51:00.044Z,65.67
2019-03-04T06:53:43.446Z,65.36
2019-03-04T06:56:41.688Z,65.01
2019-03-04T06:59:34.292Z,64.99
2019-03-04T07:02:09.702Z,64.49
2019-03-04T07:05:16.207Z,64.05
2019-03-04T07:07:46.529Z,63.57
2019-03-04T07:10:17.990Z,63.28
2019-03-04T07:12:48.535Z,62.70
2019-03-04T07:15:18.880Z,60.84
2019-03-04T07:17:49.264Z,60.88
2019-03-04T07:20:19.919Z,59.96
2019-03-04T07:22:50.225Z,58.01
2019-03-04T07:25:20.140Z,56.18
2019-03-04T07:27:50.835Z,53.89
2019-03-04T07:30:21.278Z,51.30
2019-03-04T07:32:51.398Z,48.13
2019-03-04T07:35:21.108Z,44.91
2019-03-04T07:38:04.451Z,45.30
2019-03-04T07:40:35.054Z,44.26
2019-03-04T07:43:05.167Z,42.55
2019-03-04T07:45:35.628Z,41.11
2019-03-04T07:48:05.876Z,37.86
2019-03-04T07:50:36.385Z,38.74
2019-03-04T07:53:06.814Z,37.80
2019-03-04T07:55:37.175Z,35.65
2019-03-04T07:58:07.540Z,36.64
2019-03-04T08:00:37.836Z,37.24
2019-03-04T08:03:08.569Z,36.61
2019-03-04T08:05:38.788Z,36.71
2019-03-04T08:08:09.168Z,36.90
2019-03-04T08:11:23.261Z,36.89
2019-03-04T08:13:57.515Z,36.30
2019-03-04T08:16:27.684Z,35.87
2019-03-04T08:18:58.036Z,35.97
2019-03-04T08:21:28.383Z,36.42
2019-03-04T08:23:58.782Z,36.22
2019-03-04T08:26:29.296Z,36.52
2019-03-04T08:28:59.659Z,37.05
2019-03-04T08:31:29.798Z,38.01
2019-03-04T08:34:00.132Z,38.44
2019-03-04T08:36:30.423Z,39.02
2019-03-04T08:39:00.680Z,39.34
2019-03-04T08:41:30.747Z,39.71
2019-03-04T08:44:00.901Z,39.45
2019-03-04T08:46:31.389Z,37.33
2019-03-04T08:49:01.481Z,36.25
2019-03-04T08:51:31.606Z,34.33
2019-03-04T08:54:01.838Z,32.41
2019-03-04T08:56:32.060Z,31.41
2019-03-04T08:59:02.524Z,31.41
2019-03-04T09:01:32.856Z,30.85
2019-03-04T09:04:03.183Z,29.86
2019-03-04T09:06:33.797Z,29.47
2019-03-04T09:09:04.393Z,28.41
2019-03-04T09:11:34.488Z,28.30
2019-03-04T09:14:04.811Z,27.52
2019-03-04T09:16:35.124Z,26.62
2019-03-04T09:19:05.674Z,25.75
2019-03-04T09:21:35.635Z,24.32
2019-03-04T09:24:05.742Z,23.71
2019-03-04T09:26:35.937Z,22.68
2019-03-04T09:29:06.363Z,21.73
2019-03-04T09:31:36.465Z,20.93
2019-03-04T09:34:06.330Z,20.39
2019-03-04T09:36:36.292Z,20.07
2019-03-04T09:39:08.090Z,19.93
2019-03-04T09:41:38.166Z,19.51
2019-03-04T09:44:08.529Z,19.00
2019-03-04T09:46:38.678Z,19.17
2019-03-04T09:49:08.892Z,18.69
2019-03-04T09:51:38.942Z,18.16
2019-03-04T09:54:09.271Z,18.56
2019-03-04T09:56:38.959Z,18.44
2019-03-04T09:59:09.377Z,17.52
2019-03-04T10:01:50.024Z,16.81
2019-03-04T10:04:54.807Z,16.57
2019-03-04T10:08:14.377Z,15.70
2019-03-04T10:11:35.976Z,14.42
2019-03-04T10:15:07.980Z,13.92
2019-03-04T10:17:41.983Z,12.27
2019-03-04T10:21:13.600Z,12.84
2019-03-04T10:24:06.627Z,12.71
2019-03-04T10:27:02.664Z,13.32
2019-03-04T10:30:12.894Z,13.16
2019-03-04T10:33:08.631Z,12.59
2019-03-04T10:36:05.488Z,12.90
2019-03-04T10:39:22.546Z,12.53
2019-03-04T10:42:21.901Z,12.19
2019-03-04T10:45:04.271Z,11.77
2019-03-04T10:47:34.193Z,11.63
2019-03-04T10:50:04.763Z,11.35
2019-03-04T10:52:34.844Z,11.21
2019-03-04T10:55:06.332Z,10.80
2019-03-04T10:57:36.202Z,10.83
2019-03-04T11:00:14.272Z,10.57
2019-03-04T11:02:44.067Z,10.19
2019-03-04T11:05:14.296Z,9.51
2019-03-04T11:07:44.321Z,9.06
2019-03-04T11:10:14.977Z,9.47
2019-03-04T11:12:45.367Z,9.05
2019-03-04T11:15:23.316Z,9.55
2019-03-04T11:17:54.482Z,10.35
2019-03-04T11:20:24.538Z,10.81
2019-03-04T11:22:54.876Z,9.95
2019-03-04T11:25:24.978Z,10.20
2019-03-04T11:27:55.198Z,10.40
2019-03-04T11:30:28.757Z,9.65
2019-03-04T11:32:59.066Z,10.06
2019-03-04T11:35:29.080Z,9.89
2019-03-04T11:37:59.257Z,9.62
2019-03-04T11:40:40.667Z,9.74
2019-03-04T11:43:11.012Z,9.07
2019-03-04T11:45:41.014Z,8.51
2019-03-04T11:48:11.035Z,8.13
2019-03-04T11:50:41.446Z,8.24
2019-03-04T11:53:11.779Z,8.13
2019-03-04T11:55:41.410Z,8.07
2019-03-04T11:58:11.383Z,7.50
2019-03-04T12:00:44.562Z,7.37
2019-03-04T12:03:15.019Z,7.94
2019-03-04T12:05:45.066Z,8.53
2019-03-04T12:08:15.239Z,8.62
2019-03-04T12:10:45.320Z,8.84
2019-03-04T12:13:15.212Z,9.38
2019-03-04T12:15:45.855Z,9.55
2019-03-04T12:18:16.099Z,10.14
2019-03-04T12:20:46.885Z,9.00
2019-03-04T12:23:17.096Z,8.51
2019-03-04T12:25:46.876Z,8.94
2019-03-04T12:28:18.502Z,9.81
2019-03-04T12:30:48.846Z,9.58
2019-03-04T12:33:19.082Z,9.64
2019-03-04T12:35:49.473Z,9.31
2019-03-04T12:38:20.507Z,9.26
2019-03-04T12:40:50.933Z,8.51
2019-03-04T12:43:21.113Z,8.35
2019-03-04T12:45:50.816Z,9.15
2019-03-04T12:48:20.898Z,9.52
2019-03-04T12:50:51.159Z,9.17
2019-03-04T12:53:21.072Z,8.67
2019-03-04T12:55:51.151Z,7.94
2019-03-04T12:58:21.388Z,8.78
2019-03-04T13:00:51.393Z,8.68
2019-03-04T13:03:23.731Z,8.39
2019-03-04T13:05:53.901Z,8.36
2019-03-04T13:08:23.844Z,8.35
2019-03-04T13:10:54.157Z,8.36
2019-03-04T13:13:23.973Z,8.06
2019-03-04T13:15:55.630Z,8.92
2019-03-04T13:18:26.045Z,9.46
2019-03-04T13:20:56.134Z,9.67
2019-03-04T13:23:26.352Z,11.33
2019-03-04T13:25:56.390Z,12.75
2019-03-04T13:28:26.539Z,13.88
2019-03-04T13:30:56.611Z,14.79
2019-03-04T13:33:26.643Z,15.97
2019-03-04T13:35:57.077Z,17.28
2019-03-04T13:38:27.473Z,17.03
2019-03-04T13:40:57.825Z,17.65
2019-03-04T13:43:28.094Z,18.06
2019-03-04T13:45:58.035Z,18.36
2019-03-04T13:48:28.027Z,19.08
2019-03-04T13:50:58.381Z,19.64
2019-03-04T13:53:27.963Z,19.89
2019-03-04T13:55:58.373Z,20.10
2019-03-04T13:58:28.413Z,20.27
2019-03-04T14:00:58.359Z,20.51
2019-03-04T14:03:28.755Z,21.28
2019-03-04T14:05:59.184Z,22.47
2019-03-04T14:08:29.419Z,23.24
2019-03-04T14:10:59.491Z,23.36
2019-03-04T14:13:29.733Z,23.81
2019-03-04T14:15:59.584Z,23.94
2019-03-04T14:18:29.564Z,24.12
2019-03-04T14:20:59.886Z,24.39
2019-03-04T14:23:30.200Z,24.80
2019-03-04T14:26:00.103Z,25.16
2019-03-04T14:28:30.337Z,24.96
2019-03-04T14:31:00.501Z,25.61
2019-03-04T14:33:30.641Z,25.76
2019-03-04T14:36:00.903Z,25.82
2019-03-04T14:38:30.908Z,26.13
2019-03-04T14:41:01.187Z,26.56
2019-03-04T14:43:31.258Z,27.03
2019-03-04T14:46:01.482Z,27.22
2019-03-04T14:48:31.848Z,27.65
2019-03-04T14:51:02.170Z,27.53
2019-03-04T14:53:32.349Z,27.89
2019-03-04T14:56:02.705Z,28.25
2019-03-04T14:58:33.254Z,28.35
2019-03-04T15:01:03.509Z,28.45
2019-03-04T15:03:33.675Z,28.78
2019-03-04T15:06:06.801Z,29.48
2019-03-04T15:08:35.249Z,29.83
2019-03-04T15:11:05.506Z,30.47
2019-03-04T15:13:35.765Z,30.74
2019-03-04T15:16:07.103Z,30.98
2019-03-04T15:18:37.349Z,31.38
2019-03-04T15:21:08.508Z,31.39
2019-03-04T15:23:38.845Z,31.61
2019-03-04T15:26:09.644Z,31.78
2019-03-04T15:28:39.529Z,31.61
2019-03-04T15:31:09.808Z,31.60
2019-03-04T15:33:40.197Z,32.21
2019-03-04T15:36:10.443Z,32.28
2019-03-04T15:38:40.363Z,32.94
2019-03-04T15:41:11.128Z,33.28
2019-03-04T15:43:41.543Z,33.76
2019-03-04T15:46:11.786Z,33.94
2019-03-04T15:48:41.991Z,34.19
2019-03-04T15:51:12.382Z,34.59
2019-03-04T15:53:43.539Z,34.82
2019-03-04T15:56:13.906Z,35.09
2019-03-04T15:58:44.290Z,35.49
2019-03-04T16:01:14.896Z,35.39
2019-03-04T16:03:45.298Z,35.01
2019-03-04T16:06:15.635Z,35.19
2019-03-04T16:08:46.003Z,35.49
2019-03-04T16:11:16.687Z,35.27
2019-03-04T16:13:53.318Z,35.64
2019-03-04T16:16:19.087Z,35.52
2019-03-04T16:18:49.482Z,36.02
2019-03-04T16:21:20.114Z,36.31
2019-03-04T16:23:50.122Z,36.47
2019-03-04T16:26:20.615Z,37.10
2019-03-04T16:28:51.065Z,37.22
2019-03-04T16:31:21.772Z,37.46
2019-03-04T16:33:51.816Z,37.04
2019-03-04T16:36:22.282Z,37.39
2019-03-04T16:38:52.541Z,38.09
2019-03-04T16:41:22.820Z,38.42
2019-03-04T16:43:52.970Z,38.76
2019-03-04T16:46:23.079Z,38.62
2019-03-04T16:48:53.352Z,38.57
2019-03-04T16:51:23.653Z,39.10
2019-03-04T16:53:53.622Z,39.44
2019-03-04T16:56:23.988Z,40.02
2019-03-04T16:58:54.482Z,40.11
2019-03-04T17:01:24.674Z,40.72
2019-03-04T17:03:54.840Z,40.75
2019-03-04T17:06:25.116Z,41.20
2019-03-04T17:08:57.852Z,41.17
2019-03-04T17:11:28.065Z,41.23
2019-03-04T17:13:58.452Z,42.00
2019-03-04T17:16:28.523Z,41.79
2019-03-04T17:18:59.130Z,42.41
2019-03-04T17:21:29.735Z,42.58
2019-03-04T17:24:00.338Z,42.64
2019-03-04T17:26:33.286Z,43.17
2019-03-04T17:29:03.513Z,43.27
2019-03-04T17:31:35.921Z,43.38
2019-03-04T17:34:06.788Z,43.44
2019-03-04T17:36:37.358Z,43.88
2019-03-04T17:39:09.135Z,44.47
2019-03-04T17:41:40.747Z,44.56
2019-03-04T17:44:18.755Z,44.71
2019-03-04T17:46:49.272Z,44.73
2019-03-04T17:49:19.731Z,45.18
2019-03-04T17:51:50.138Z,45.81
2019-03-04T17:54:20.643Z,45.60
2019-03-04T17:56:51.056Z,45.79
2019-03-04T17:59:21.305Z,46.46
2019-03-04T18:01:51.618Z,46.50
2019-03-04T18:04:22.204Z,46.59
2019-03-04T18:06:52.595Z,46.41
2019-03-04T18:09:25.021Z,47.21
2019-03-04T18:11:55.538Z,47.41
2019-03-04T18:14:25.887Z,47.36
2019-03-04T18:16:56.128Z,46.76
2019-03-04T18:19:26.493Z,47.05
2019-03-04T18:21:56.956Z,46.89
2019-03-04T18:24:27.365Z,46.99
2019-03-04T18:27:13.694Z,47.25
2019-03-04T18:30:09.627Z,47.24
2019-03-04T18:33:22.485Z,47.43
2019-03-04T18:36:17.775Z,47.04
2019-03-04T18:39:26.605Z,47.45
2019-03-04T18:42:38.286Z,46.88
2019-03-04T18:45:21.595Z,46.29
2019-03-04T18:48:23.239Z,45.92
2019-03-04T18:50:53.162Z,45.62
2019-03-04T18:53:23.352Z,45.60
2019-03-04T18:55:54.345Z,45.49
2019-03-04T18:58:24.745Z,45.74
2019-03-04T19:00:55.080Z,45.41
2019-03-04T19:03:25.539Z,45.41
2019-03-04T19:05:55.629Z,45.31
2019-03-04T19:08:26.078Z,45.18
2019-03-04T19:10:56.194Z,45.46
2019-03-04T19:13:26.379Z,45.22
2019-03-04T19:15:56.798Z,45.40
2019-03-04T19:18:27.541Z,46.10
2019-03-04T19:20:57.577Z,46.77
2019-03-04T19:23:28.116Z,47.48
2019-03-04T19:25:58.319Z,47.62
2019-03-04T19:28:29.059Z,48.34
2019-03-04T19:30:59.095Z,48.57
2019-03-04T19:33:29.592Z,48.39
2019-03-04T19:35:59.815Z,48.79
2019-03-04T19:38:30.250Z,49.37
2019-03-04T19:41:00.810Z,49.86
2019-03-04T19:43:33.069Z,50.78
2019-03-04T19:46:03.306Z,51.20
2019-03-04T19:48:33.743Z,51.19
2019-03-04T19:51:04.168Z,51.26
2019-03-04T19:53:34.645Z,51.55
2019-03-04T19:56:05.112Z,51.29
2019-03-04T19:58:35.117Z,51.81
2019-03-04T20:01:06.269Z,52.11
2019-03-04T20:03:36.695Z,52.39
2019-03-04T20:06:07.789Z,52.14
2019-03-04T20:08:38.204Z,52.34
2019-03-04T20:11:08.703Z,52.86
2019-03-04T20:13:39.140Z,52.48
2019-03-04T20:16:10.848Z,52.83
2019-03-04T20:18:41.580Z,53.32
2019-03-04T20:21:11.858Z,54.01
2019-03-04T20:23:42.369Z,54.15
2019-03-04T20:26:12.895Z,54.54
2019-03-04T20:28:43.074Z,54.31
2019-03-04T20:31:13.452Z,54.02
2019-03-04T20:33:44.898Z,54.07
2019-03-04T20:36:15.207Z,54.44
2019-03-04T20:38:47.464Z,54.60
2019-03-04T20:41:17.743Z,55.00
2019-03-04T20:43:47.906Z,55.21
2019-03-04T20:46:18.376Z,55.24
2019-03-04T20:48:48.741Z,54.90
2019-03-04T20:51:19.071Z,54.89
2019-03-04T20:53:51.291Z,54.50
2019-03-04T20:56:21.556Z,54.46
2019-03-04T20:58:51.495Z,54.72
2019-03-04T21:01:22.323Z,55.08
2019-03-04T21:03:52.798Z,54.70
2019-03-04T21:06:22.929Z,54.76
2019-03-04T21:08:53.337Z,55.14
2019-03-04T21:11:23.771Z,55.72
2019-03-04T21:13:54.037Z,55.92
2019-03-04T21:16:24.541Z,56.25
2019-03-04T21:18:54.903Z,56.11
2019-03-04T21:21:25.241Z,56.47
2019-03-04T21:23:55.909Z,56.52
2019-03-04T21:26:32.267Z,56.89
2019-03-04T21:29:55.042Z,56.72
2019-03-04T21:32:59.448Z,56.91
2019-03-04T21:36:02.074Z,57.51
2019-03-04T21:38:34.148Z,56.07
2019-03-04T21:41:34.970Z,56.43
2019-03-04T21:44:27.477Z,56.66
2019-03-04T21:47:15.026Z,55.65
2019-03-04T21:49:48.275Z,55.87
2019-03-04T21:53:00.970Z,55.53
2019-03-04T21:55:36.558Z,55.63
2019-03-04T21:58:07.096Z,55.72
2019-03-04T22:00:40.554Z,55.80
2019-03-04T22:03:19.714Z,55.17
2019-03-04T22:05:50.769Z,55.28
2019-03-04T22:08:21.666Z,55.21
2019-03-04T22:10:52.405Z,55.69
2019-03-04T22:13:22.898Z,56.22
2019-03-04T22:15:53.306Z,56.59
2019-03-04T22:18:23.621Z,57.15
2019-03-04T22:20:53.885Z,57.47
2019-03-04T22:23:24.494Z,57.84
2019-03-04T22:26:01.942Z,57.75
2019-03-04T22:28:26.802Z,57.89
2019-03-04T22:30:58.069Z,57.07
2019-03-04T22:33:28.518Z,57.33
2019-03-04T22:35:58.831Z,58.02
2019-03-04T22:38:29.240Z,58.03
2019-03-04T22:40:59.319Z,57.65
2019-03-04T22:43:29.458Z,58.46
2019-03-04T22:45:59.762Z,59.20
2019-03-04T22:48:30.147Z,60.42
2019-03-04T22:51:01.273Z,60.71
2019-03-04T22:53:31.297Z,61.33
2019-03-04T22:56:01.805Z,60.15
2019-03-04T22:58:32.231Z,60.69
2019-03-04T23:01:35.467Z,61.88
2019-03-04T23:04:37.914Z,62.11
2019-03-04T23:07:19.116Z,62.19
2019-03-04T23:10:27.268Z,61.54
2019-03-04T23:13:13.894Z,61.89
2019-03-04T23:15:45.024Z,62.02
2019-03-04T23:18:15.673Z,62.42
2019-03-04T23:20:46.116Z,61.94
2019-03-04T23:23:16.444Z,62.38
2019-03-04T23:25:46.576Z,62.70
2019-03-04T23:28:16.965Z,62.68
2019-03-04T23:30:47.264Z,61.80
2019-03-04T23:33:17.356Z,61.83
2019-03-04T23:35:47.651Z,61.97
2019-03-04T23:38:18.054Z,61.65
2019-03-04T23:40:49.251Z,61.67
2019-03-04T23:43:19.255Z,60.94
2019-03-04T23:45:49.685Z,60.86
2019-03-04T23:48:20.085Z,60.82
2019-03-04T23:50:49.779Z,60.95
2019-03-04T23:53:20.163Z,60.86
2019-03-04T23:55:50.606Z,60.86
2019-03-04T23:58:20.692Z,60.33
